Miramonte, California
Current Conditions -  °F | °C
As of 9:35 PM on Tuesday 21 Oct 2014 (Local Time) from KVIS Reporting Station
Clear Clear  
Wind Chill: 61°   Ceiling: Unl
Heat Index: 61°   Visibility: 10mi
Dew Point: 43°   Wind: 6mph
Humidity: 52%   Direction: 320°NW
Pressure: 30.01"   Gusts: NA
Location:  36.69°N, 119.05°W
Report Text: KVIS 220435Z 32005KT 10SM CLR 16/06 A3001 RMK AO1
Loading
Personal Weather Stations






























Interactive Weather Map
Tropical Storm Tracking
New forecast layout! Learn more

10-Day Weather Forecast

Advertisements
Track Severe Weather on mobile